sensor_id;sensor_type;location;lat;lon;timestamp;pressure;altitude;pressure_sealevel;temperature;humidity
14253;BME280;7210;51.502;10.722;2023-02-18T00:00:58;99972.66;;;7.81;93.46
14253;BME280;7210;51.502;10.722;2023-02-18T00:03:27;99998.72;;;7.69;94.63
14253;BME280;7210;51.502;10.722;2023-02-18T00:05:55;99986.56;;;7.55;95.15
14253;BME280;7210;51.502;10.722;2023-02-18T00:08:22;100019.59;;;7.64;95.44
14253;BME280;7210;51.502;10.722;2023-02-18T00:10:49;100036.81;;;7.73;95.58
14253;BME280;7210;51.502;10.722;2023-02-18T00:13:18;100049.19;;;7.79;96.11
14253;BME280;7210;51.502;10.722;2023-02-18T00:15:46;100038.44;;;7.81;96.21
14253;BME280;7210;51.502;10.722;2023-02-18T00:18:13;100043.94;;;7.79;96.58
14253;BME280;7210;51.502;10.722;2023-02-18T00:20:40;100034.19;;;7.73;96.69
14253;BME280;7210;51.502;10.722;2023-02-18T00:23:08;100033.34;;;7.66;96.50
14253;BME280;7210;51.502;10.722;2023-02-18T00:25:35;100023.06;;;7.71;95.96
14253;BME280;7210;51.502;10.722;2023-02-18T00:28:03;100019.41;;;7.72;96.01
14253;BME280;7210;51.502;10.722;2023-02-18T00:30:31;100010.88;;;7.70;95.78
14253;BME280;7210;51.502;10.722;2023-02-18T00:32:58;99993.88;;;7.66;95.31
14253;BME280;7210;51.502;10.722;2023-02-18T00:35:26;99994.47;;;7.68;95.14
14253;BME280;7210;51.502;10.722;2023-02-18T00:37:53;99980.50;;;7.61;94.82
14253;BME280;7210;51.502;10.722;2023-02-18T00:40:20;99974.81;;;7.51;94.55
14253;BME280;7210;51.502;10.722;2023-02-18T00:42:47;99968.72;;;7.44;94.30
14253;BME280;7210;51.502;10.722;2023-02-18T00:45:15;99965.47;;;7.36;94.42
14253;BME280;7210;51.502;10.722;2023-02-18T00:47:43;99979.63;;;7.41;94.53
14253;BME280;7210;51.502;10.722;2023-02-18T00:50:11;99980.84;;;7.45;94.51
14253;BME280;7210;51.502;10.722;2023-02-18T00:52:38;99980.06;;;7.51;94.11
14253;BME280;7210;51.502;10.722;2023-02-18T00:55:07;99954.94;;;7.42;93.79
14253;BME280;7210;51.502;10.722;2023-02-18T00:57:34;99954.94;;;7.42;93.93
14253;BME280;7210;51.502;10.722;2023-02-18T01:00:02;99948.84;;;7.35;93.55
14253;BME280;7210;51.502;10.722;2023-02-18T01:02:29;99953.88;;;7.30;93.88
14253;BME280;7210;51.502;10.722;2023-02-18T01:04:59;99960.97;;;7.30;94.04
14253;BME280;7210;51.502;10.722;2023-02-18T01:07:26;99970.28;;;7.32;93.95
14253;BME280;7210;51.502;10.722;2023-02-18T01:09:58;99975.56;;;7.32;93.74
14253;BME280;7210;51.502;10.722;2023-02-18T01:12:31;99984.06;;;7.34;94.21
14253;BME280;7210;51.502;10.722;2023-02-18T01:14:58;99988.53;;;7.40;94.06
14253;BME280;7210;51.502;10.722;2023-02-18T01:17:26;99986.88;;;7.39;94.09
14253;BME280;7210;51.502;10.722;2023-02-18T01:19:53;99994.59;;;7.47;94.11
14253;BME280;7210;51.502;10.722;2023-02-18T01:22:22;99999.09;;;7.53;93.87
14253;BME280;7210;51.502;10.722;2023-02-18T01:24:49;99994.25;;;7.57;93.64
14253;BME280;7210;51.502;10.722;2023-02-18T01:27:17;100017.31;;;7.61;94.13
14253;BME280;7210;51.502;10.722;2023-02-18T01:29:44;100009.00;;;7.58;94.11
14253;BME280;7210;51.502;10.722;2023-02-18T01:32:11;100024.63;;;7.66;94.16
14253;BME280;7210;51.502;10.722;2023-02-18T01:34:38;100021.41;;;7.70;94.02
14253;BME280;7210;51.502;10.722;2023-02-18T01:37:05;100014.16;;;7.72;93.88
14253;BME280;7210;51.502;10.722;2023-02-18T01:39:36;100016.38;;;7.75;93.59
14253;BME280;7210;51.502;10.722;2023-02-18T01:42:05;100018.81;;;7.77;93.97
14253;BME280;7210;51.502;10.722;2023-02-18T01:44:34;100006.44;;;7.77;93.27
14253;BME280;7210;51.502;10.722;2023-02-18T01:47:01;100008.88;;;7.79;93.13
14253;BME280;7210;51.502;10.722;2023-02-18T01:49:35;100002.59;;;7.80;93.37
14253;BME280;7210;51.502;10.722;2023-02-18T01:52:10;99996.56;;;7.79;93.58
14253;BME280;7210;51.502;10.722;2023-02-18T01:54:43;99999.38;;;7.84;93.29
14253;BME280;7210;51.502;10.722;2023-02-18T01:57:16;99991.47;;;7.84;92.96
14253;BME280;7210;51.502;10.722;2023-02-18T01:59:51;99976.91;;;7.82;93.03
14253;BME280;7210;51.502;10.722;2023-02-18T02:02:28;99986.22;;;7.84;92.70
14253;BME280;7210;51.502;10.722;2023-02-18T02:04:56;99978.13;;;7.86;92.79
14253;BME280;7210;51.502;10.722;2023-02-18T02:07:25;99989.50;;;7.86;93.11
14253;BME280;7210;51.502;10.722;2023-02-18T02:09:57;99979.75;;;7.87;93.00
14253;BME280;7210;51.502;10.722;2023-02-18T02:12:49;99985.63;;;7.89;93.04
14253;BME280;7210;51.502;10.722;2023-02-18T02:15:43;99987.47;;;7.88;93.28
14253;BME280;7210;51.502;10.722;2023-02-18T02:18:31;99985.84;;;7.87;93.16
14253;BME280;7210;51.502;10.722;2023-02-18T02:21:47;99987.47;;;7.88;93.33
14253;BME280;7210;51.502;10.722;2023-02-18T02:24:56;99997.38;;;7.86;93.48
14253;BME280;7210;51.502;10.722;2023-02-18T02:27:49;99986.22;;;7.84;93.86
14253;BME280;7210;51.502;10.722;2023-02-18T02:30:49;99995.53;;;7.87;93.42
14253;BME280;7210;51.502;10.722;2023-02-18T02:37:08;99981.38;;;7.81;93.87
14253;BME280;7210;51.502;10.722;2023-02-18T02:39:48;99990.28;;;7.87;93.67
14253;BME280;7210;51.502;10.722;2023-02-18T02:42:30;99998.00;;;7.88;93.89
14253;BME280;7210;51.502;10.722;2023-02-18T02:45:46;99974.69;;;7.85;93.54
14253;BME280;7210;51.502;10.722;2023-02-18T02:48:24;99976.53;;;7.91;93.67
14253;BME280;7210;51.502;10.722;2023-02-18T02:51:05;99969.22;;;7.93;93.55
14253;BME280;7210;51.502;10.722;2023-02-18T02:53:40;99957.06;;;7.92;93.53
14253;BME280;7210;51.502;10.722;2023-02-18T02:56:14;99958.28;;;7.90;93.61
14253;BME280;7210;51.502;10.722;2023-02-18T02:58:44;99958.50;;;7.88;93.62
14253;BME280;7210;51.502;10.722;2023-02-18T03:01:26;99979.34;;;7.90;94.13
14253;BME280;7210;51.502;10.722;2023-02-18T03:04:30;99976.13;;;7.94;94.28
14253;BME280;7210;51.502;10.722;2023-02-18T03:10:18;99968.25;;;7.94;94.08
14253;BME280;7210;51.502;10.722;2023-02-18T03:12:58;99966.41;;;7.88;94.19
14253;BME280;7210;51.502;10.722;2023-02-18T03:19:06;99988.66;;;7.92;94.83
14253;BME280;7210;51.502;10.722;2023-02-18T03:21:41;99995.97;;;7.90;94.93
14253;BME280;7210;51.502;10.722;2023-02-18T03:24:17;99995.97;;;7.90;95.09
14253;BME280;7210;51.502;10.722;2023-02-18T03:26:56;99994.75;;;7.93;95.48
14253;BME280;7210;51.502;10.722;2023-02-18T03:29:25;99994.34;;;7.89;95.33
14253;BME280;7210;51.502;10.722;2023-02-18T03:31:59;99982.56;;;7.85;95.59
14253;BME280;7210;51.502;10.722;2023-02-18T03:34:34;99976.91;;;7.75;96.17
14253;BME280;7210;51.502;10.722;2023-02-18T03:37:04;99988.25;;;7.82;96.04
14253;BME280;7210;51.502;10.722;2023-02-18T03:39:34;100008.28;;;7.83;96.33
14253;BME280;7210;51.502;10.722;2023-02-18T03:42:04;100011.34;;;7.80;96.77
14253;BME280;7210;51.502;10.722;2023-02-18T03:44:32;100012.13;;;7.81;96.92
14253;BME280;7210;51.502;10.722;2023-02-18T03:46:59;100017.78;;;7.78;97.41
14253;BME280;7210;51.502;10.722;2023-02-18T03:49:26;100010.50;;;7.73;97.71
14253;BME280;7210;51.502;10.722;2023-02-18T03:51:54;100013.31;;;7.72;97.90
14253;BME280;7210;51.502;10.722;2023-02-18T03:54:21;100021.41;;;7.70;98.32
14253;BME280;7210;51.502;10.722;2023-02-18T03:56:48;100019.78;;;7.69;98.95
14253;BME280;7210;51.502;10.722;2023-02-18T03:59:16;100018.38;;;7.67;99.08
14253;BME280;7210;51.502;10.722;2023-02-18T04:01:44;100021.00;;;7.67;99.54
14253;BME280;7210;51.502;10.722;2023-02-18T04:04:11;100022.81;;;7.66;99.53
14253;BME280;7210;51.502;10.722;2023-02-18T04:06:38;100016.53;;;7.67;100.00
14253;BME280;7210;51.502;10.722;2023-02-18T04:09:05;100028.09;;;7.66;100.00
14253;BME280;7210;51.502;10.722;2023-02-18T04:11:35;100022.22;;;7.64;100.00
14253;BME280;7210;51.502;10.722;2023-02-18T04:14:03;100017.97;;;7.63;100.00
14253;BME280;7210;51.502;10.722;2023-02-18T04:16:32;100019.97;;;7.61;100.00
14253;BME280;7210;51.502;10.722;2023-02-18T04:18:59;100023.41;;;7.62;100.00
14253;BME280;7210;51.502;10.722;2023-02-18T04:21:26;100014.09;;;7.59;100.00
14253;BME280;7210;51.502;10.722;2023-02-18T04:23:53;100007.22;;;7.58;100.00
14253;BME280;7210;51.502;10.722;2023-02-18T04:26:20;100004.75;;;7.57;100.00
14253;BME280;7210;51.502;10.722;2023-02-18T04:28:48;99998.06;;;7.54;100.00
14253;BME280;7210;51.502;10.722;2023-02-18T04:31:15;99997.47;;;7.52;100.00
14253;BME280;7210;51.502;10.722;2023-02-18T04:33:43;99993.41;;;7.50;100.00
14253;BME280;7210;51.502;10.722;2023-02-18T04:36:11;99991.19;;;7.47;100.00
14253;BME280;7210;51.502;10.722;2023-02-18T04:38:38;99977.59;;;7.43;100.00
14253;BME280;7210;51.502;10.722;2023-02-18T04:41:06;99970.13;;;7.40;100.00
14253;BME280;7210;51.502;10.722;2023-02-18T04:43:34;99972.75;;;7.40;100.00
14253;BME280;7210;51.502;10.722;2023-02-18T04:46:01;99982.44;;;7.40;100.00
14253;BME280;7210;51.502;10.722;2023-02-18T04:48:28;99981.22;;;7.36;100.00
14253;BME280;7210;51.502;10.722;2023-02-18T04:50:56;99973.53;;;7.34;100.00
14253;BME280;7210;51.502;10.722;2023-02-18T04:53:24;99972.72;;;7.34;100.00
14253;BME280;7210;51.502;10.722;2023-02-18T04:55:52;99986.06;;;7.32;100.00
14253;BME280;7210;51.502;10.722;2023-02-18T04:58:20;99979.16;;;7.31;100.00
14253;BME280;7210;51.502;10.722;2023-02-18T05:00:48;99987.06;;;7.31;100.00
14253;BME280;7210;51.502;10.722;2023-02-18T05:03:15;99989.69;;;7.31;100.00
14253;BME280;7210;51.502;10.722;2023-02-18T05:05:42;99992.53;;;7.30;100.00
14253;BME280;7210;51.502;10.722;2023-02-18T05:08:12;99983.81;;;7.29;100.00
14253;BME280;7210;51.502;10.722;2023-02-18T05:10:41;99986.06;;;7.32;100.00
14253;BME280;7210;51.502;10.722;2023-02-18T05:13:08;99983.88;;;7.36;100.00
14253;BME280;7210;51.502;10.722;2023-02-18T05:15:35;99968.28;;;7.34;100.00
14253;BME280;7210;51.502;10.722;2023-02-18T05:18:03;99973.91;;;7.31;100.00
14253;BME280;7210;51.502;10.722;2023-02-18T05:20:30;99966.66;;;7.33;100.00
14253;BME280;7210;51.502;10.722;2023-02-18T05:22:57;99960.75;;;7.31;100.00
14253;BME280;7210;51.502;10.722;2023-02-18T05:25:25;99959.34;;;7.29;100.00
14253;BME280;7210;51.502;10.722;2023-02-18T05:27:53;99963.38;;;7.31;100.00
14253;BME280;7210;51.502;10.722;2023-02-18T05:30:20;99969.28;;;7.33;100.00
14253;BME280;7210;51.502;10.722;2023-02-18T05:32:47;99956.50;;;7.30;100.00
14253;BME280;7210;51.502;10.722;2023-02-18T05:35:14;99954.13;;;7.35;100.00
14253;BME280;7210;51.502;10.722;2023-02-18T05:37:42;99952.91;;;7.38;100.00
14253;BME280;7210;51.502;10.722;2023-02-18T05:40:10;99948.84;;;7.35;100.00
14253;BME280;7210;51.502;10.722;2023-02-18T05:42:39;99952.69;;;7.39;100.00
14253;BME280;7210;51.502;10.722;2023-02-18T05:45:07;99952.13;;;7.44;100.00
14253;BME280;7210;51.502;10.722;2023-02-18T05:47:35;99947.47;;;7.46;100.00
14253;BME280;7210;51.502;10.722;2023-02-18T05:50:04;99946.88;;;7.57;100.00
14253;BME280;7210;51.502;10.722;2023-02-18T05:52:31;99946.50;;;7.60;100.00
14253;BME280;7210;51.502;10.722;2023-02-18T05:54:58;99939.44;;;7.67;100.00
14253;BME280;7210;51.502;10.722;2023-02-18T05:57:25;99930.72;;;7.66;100.00
14253;BME280;7210;51.502;10.722;2023-02-18T05:59:54;99930.53;;;7.68;100.00
14253;BME280;7210;51.502;10.722;2023-02-18T06:02:21;99925.06;;;7.69;100.00
14253;BME280;7210;51.502;10.722;2023-02-18T06:04:50;99921.81;;;7.67;100.00
14253;BME280;7210;51.502;10.722;2023-02-18T06:07:17;99922.00;;;7.66;100.00
14253;BME280;7210;51.502;10.722;2023-02-18T06:09:46;99899.13;;;7.53;100.00
14253;BME280;7210;51.502;10.722;2023-02-18T06:12:13;99908.06;;;7.72;100.00
14253;BME280;7210;51.502;10.722;2023-02-18T06:14:40;99907.03;;;7.73;100.00
14253;BME280;7210;51.502;10.722;2023-02-18T06:17:11;99912.94;;;7.81;100.00
14253;BME280;7210;51.502;10.722;2023-02-18T06:19:39;99902.22;;;7.83;100.00
14253;BME280;7210;51.502;10.722;2023-02-18T06:22:07;99894.31;;;7.83;100.00
14253;BME280;7210;51.502;10.722;2023-02-18T06:24:34;99893.09;;;7.85;100.00
14253;BME280;7210;51.502;10.722;2023-02-18T06:27:01;99894.31;;;7.89;100.00
14253;BME280;7210;51.502;10.722;2023-02-18T06:29:29;99892.69;;;7.95;100.00
14253;BME280;7210;51.502;10.722;2023-02-18T06:31:56;99896.53;;;8.05;100.00
14253;BME280;7210;51.502;10.722;2023-02-18T06:34:26;99885.81;;;8.13;100.00
14253;BME280;7210;51.502;10.722;2023-02-18T06:36:54;99878.53;;;8.28;100.00
14253;BME280;7210;51.502;10.722;2023-02-18T06:39:21;99881.78;;;8.37;100.00
14253;BME280;7210;51.502;10.722;2023-02-18T06:41:48;99860.28;;;8.40;100.00
14253;BME280;7210;51.502;10.722;2023-02-18T06:44:15;99857.03;;;8.44;100.00
14253;BME280;7210;51.502;10.722;2023-02-18T06:46:43;99857.81;;;8.51;100.00
14253;BME280;7210;51.502;10.722;2023-02-18T06:49:10;99857.78;;;8.64;100.00
14253;BME280;7210;51.502;10.722;2023-02-18T06:51:39;99852.84;;;8.81;100.00
14253;BME280;7210;51.502;10.722;2023-02-18T06:54:06;99846.72;;;8.93;100.00
14253;BME280;7210;51.502;10.722;2023-02-18T06:56:33;99837.78;;;8.94;100.00
14253;BME280;7210;51.502;10.722;2023-02-18T06:59:00;99827.59;;;9.04;100.00
14253;BME280;7210;51.502;10.722;2023-02-18T07:01:27;99816.22;;;9.04;100.00
14253;BME280;7210;51.502;10.722;2023-02-18T07:03:54;99804.22;;;9.14;100.00
14253;BME280;7210;51.502;10.722;2023-02-18T07:06:21;99799.13;;;9.19;100.00
14253;BME280;7210;51.502;10.722;2023-02-18T07:08:50;99789.16;;;9.21;100.00
14253;BME280;7210;51.502;10.722;2023-02-18T07:11:17;99771.84;;;9.25;100.00
14253;BME280;7210;51.502;10.722;2023-02-18T07:13:45;99752.41;;;9.26;100.00
14253;BME280;7210;51.502;10.722;2023-02-18T07:16:12;99745.66;;;9.30;100.00
14253;BME280;7210;51.502;10.722;2023-02-18T07:18:40;99730.00;;;9.35;100.00
14253;BME280;7210;51.502;10.722;2023-02-18T07:21:07;99726.34;;;9.36;100.00
14253;BME280;7210;51.502;10.722;2023-02-18T07:23:34;99719.00;;;9.38;100.00
14253;BME280;7210;51.502;10.722;2023-02-18T07:26:06;99720.56;;;9.46;100.00
14253;BME280;7210;51.502;10.722;2023-02-18T07:28:34;99712.88;;;9.44;100.00
14253;BME280;7210;51.502;10.722;2023-02-18T07:31:03;99710.41;;;9.49;100.00
14253;BME280;7210;51.502;10.722;2023-02-18T07:33:31;99701.38;;;9.57;100.00
14253;BME280;7210;51.502;10.722;2023-02-18T07:36:01;99695.38;;;9.68;100.00
14253;BME280;7210;51.502;10.722;2023-02-18T07:38:29;99687.03;;;9.71;100.00
14253;BME280;7210;51.502;10.722;2023-02-18T07:40:58;99668.94;;;9.74;100.00
14253;BME280;7210;51.502;10.722;2023-02-18T07:43:28;99658.94;;;9.76;100.00
14253;BME280;7210;51.502;10.722;2023-02-18T07:45:57;99660.56;;;9.77;100.00
14253;BME280;7210;51.502;10.722;2023-02-18T07:48:26;99644.72;;;9.77;100.00
14253;BME280;7210;51.502;10.722;2023-02-18T07:50:54;99640.25;;;9.78;100.00
14253;BME280;7210;51.502;10.722;2023-02-18T07:53:24;99641.03;;;9.78;100.00
14253;BME280;7210;51.502;10.722;2023-02-18T07:55:52;99639.13;;;9.85;100.00
14253;BME280;7210;51.502;10.722;2023-02-18T07:58:23;99627.53;;;9.86;100.00
14253;BME280;7210;51.502;10.722;2023-02-18T08:00:53;99630.78;;;9.88;100.00
14253;BME280;7210;51.502;10.722;2023-02-18T08:03:23;99631.94;;;9.92;100.00
14253;BME280;7210;51.502;10.722;2023-02-18T08:05:52;99623.44;;;9.90;100.00
14253;BME280;7210;51.502;10.722;2023-02-18T08:08:22;99612.00;;;9.96;100.00
14253;BME280;7210;51.502;10.722;2023-02-18T08:10:52;99606.28;;;9.99;100.00
14253;BME280;7210;51.502;10.722;2023-02-18T08:13:19;99603.13;;;10.09;100.00
14253;BME280;7210;51.502;10.722;2023-02-18T08:15:48;99590.66;;;10.16;100.00
14253;BME280;7210;51.502;10.722;2023-02-18T08:18:19;99581.44;;;10.18;100.00
14253;BME280;7210;51.502;10.722;2023-02-18T08:20:48;99575.53;;;10.23;100.00
14253;BME280;7210;51.502;10.722;2023-02-18T08:23:19;99574.97;;;10.32;100.00
14253;BME280;7210;51.502;10.722;2023-02-18T08:25:49;99562.25;;;10.41;100.00
14253;BME280;7210;51.502;10.722;2023-02-18T08:28:17;99555.13;;;10.53;100.00
14253;BME280;7210;51.502;10.722;2023-02-18T08:30:44;99553.44;;;10.58;100.00
14253;BME280;7210;51.502;10.722;2023-02-18T08:33:12;99535.84;;;10.64;100.00
14253;BME280;7210;51.502;10.722;2023-02-18T08:35:41;99520.91;;;10.69;100.00
14253;BME280;7210;51.502;10.722;2023-02-18T08:38:08;99529.19;;;10.73;100.00
14253;BME280;7210;51.502;10.722;2023-02-18T08:40:35;99526.66;;;10.78;100.00
14253;BME280;7210;51.502;10.722;2023-02-18T08:43:03;99514.94;;;10.85;100.00
14253;BME280;7210;51.502;10.722;2023-02-18T08:45:30;99503.88;;;10.88;100.00
14253;BME280;7210;51.502;10.722;2023-02-18T08:47:57;99495.03;;;10.94;100.00
14253;BME280;7210;51.502;10.722;2023-02-18T08:50:24;99499.53;;;11.05;100.00
14253;BME280;7210;51.502;10.722;2023-02-18T08:52:55;99488.59;;;11.13;100.00
14253;BME280;7210;51.502;10.722;2023-02-18T08:55:25;99492.47;;;11.22;100.00
14253;BME280;7210;51.502;10.722;2023-02-18T08:57:52;99484.97;;;11.30;100.00
14253;BME280;7210;51.502;10.722;2023-02-18T09:00:20;99484.84;;;11.37;100.00
14253;BME280;7210;51.502;10.722;2023-02-18T09:03:03;99477.34;;;11.34;100.00
14253;BME280;7210;51.502;10.722;2023-02-18T09:05:30;99477.72;;;11.26;100.00
14253;BME280;7210;51.502;10.722;2023-02-18T09:08:02;99471.38;;;11.27;100.00
14253;BME280;7210;51.502;10.722;2023-02-18T09:10:30;99468.28;;;11.30;100.00
14253;BME280;7210;51.502;10.722;2023-02-18T09:12:58;99467.25;;;11.31;100.00
14253;BME280;7210;51.502;10.722;2023-02-18T09:15:26;99484.28;;;11.35;100.00
14253;BME280;7210;51.502;10.722;2023-02-18T09:17:53;99455.41;;;11.33;100.00
14253;BME280;7210;51.502;10.722;2023-02-18T09:20:20;99460.47;;;11.35;100.00
14253;BME280;7210;51.502;10.722;2023-02-18T09:22:48;99452.88;;;11.27;100.00
14253;BME280;7210;51.502;10.722;2023-02-18T09:25:17;99439.06;;;11.25;100.00
14253;BME280;7210;51.502;10.722;2023-02-18T09:27:53;99451.03;;;11.27;100.00
14253;BME280;7210;51.502;10.722;2023-02-18T09:30:20;99445.97;;;11.26;100.00
14253;BME280;7210;51.502;10.722;2023-02-18T09:32:53;99462.19;;;11.29;100.00
14253;BME280;7210;51.502;10.722;2023-02-18T09:35:20;99450.56;;;11.30;100.00
14253;BME280;7210;51.502;10.722;2023-02-18T09:37:47;99458.47;;;11.42;100.00
14253;BME280;7210;51.502;10.722;2023-02-18T09:40:26;99472.47;;;11.54;100.00
14253;BME280;7210;51.502;10.722;2023-02-18T09:42:57;99457.97;;;11.68;100.00
14253;BME280;7210;51.502;10.722;2023-02-18T09:45:26;99471.16;;;11.79;100.00
14253;BME280;7210;51.502;10.722;2023-02-18T09:47:54;99453.34;;;11.91;100.00
14253;BME280;7210;51.502;10.722;2023-02-18T09:50:25;99444.28;;;12.04;100.00
14253;BME280;7210;51.502;10.722;2023-02-18T09:52:53;99423.06;;;12.04;100.00
14253;BME280;7210;51.502;10.722;2023-02-18T09:55:27;99427.13;;;12.23;100.00
14253;BME280;7210;51.502;10.722;2023-02-18T09:57:59;99433.38;;;12.33;100.00
14253;BME280;7210;51.502;10.722;2023-02-18T10:00:34;99427.19;;;12.44;100.00
14253;BME280;7210;51.502;10.722;2023-02-18T10:03:06;99425.72;;;12.53;100.00
14253;BME280;7210;51.502;10.722;2023-02-18T10:05:36;99405.72;;;12.46;100.00
14253;BME280;7210;51.502;10.722;2023-02-18T10:08:21;99409.44;;;12.45;100.00
14253;BME280;7210;51.502;10.722;2023-02-18T10:10:55;99403.19;;;12.34;100.00
14253;BME280;7210;51.502;10.722;2023-02-18T10:13:26;99421.66;;;12.29;100.00
14253;BME280;7210;51.502;10.722;2023-02-18T10:15:54;99411.63;;;12.15;100.00
14253;BME280;7210;51.502;10.722;2023-02-18T10:18:29;99412.41;;;11.99;100.00
14253;BME280;7210;51.502;10.722;2023-02-18T10:21:06;99423.41;;;11.91;100.00
14253;BME280;7210;51.502;10.722;2023-02-18T10:23:39;99433.69;;;11.87;100.00
14253;BME280;7210;51.502;10.722;2023-02-18T10:26:14;99417.91;;;11.64;100.00
14253;BME280;7210;51.502;10.722;2023-02-18T10:28:43;99426.31;;;11.50;100.00
14253;BME280;7210;51.502;10.722;2023-02-18T10:31:17;99434.63;;;11.42;100.00
14253;BME280;7210;51.502;10.722;2023-02-18T10:33:58;99459.31;;;11.31;100.00
14253;BME280;7210;51.502;10.722;2023-02-18T10:36:35;99458.63;;;11.24;100.00
14253;BME280;7210;51.502;10.722;2023-02-18T10:39:43;99463.81;;;11.19;100.00
14253;BME280;7210;51.502;10.722;2023-02-18T10:42:28;99484.91;;;11.14;100.00
14253;BME280;7210;51.502;10.722;2023-02-18T10:45:12;99495.13;;;11.11;100.00
14253;BME280;7210;51.502;10.722;2023-02-18T10:47:57;99501.13;;;11.06;100.00
14253;BME280;7210;51.502;10.722;2023-02-18T10:50:34;99493.53;;;10.98;100.00
14253;BME280;7210;51.502;10.722;2023-02-18T10:53:11;99492.16;;;10.96;100.00
14253;BME280;7210;51.502;10.722;2023-02-18T10:55:42;99503.09;;;10.99;100.00
14253;BME280;7210;51.502;10.722;2023-02-18T10:58:36;99490.78;;;11.05;100.00
14253;BME280;7210;51.502;10.722;2023-02-18T11:01:19;99477.75;;;11.03;100.00
14253;BME280;7210;51.502;10.722;2023-02-18T11:04:04;99488.34;;;11.03;100.00
14253;BME280;7210;51.502;10.722;2023-02-18T11:06:38;99474.56;;;11.01;100.00
14253;BME280;7210;51.502;10.722;2023-02-18T11:09:24;99482.63;;;11.06;100.00
14253;BME280;7210;51.502;10.722;2023-02-18T11:12:01;99484.53;;;11.22;100.00
14253;BME280;7210;51.502;10.722;2023-02-18T11:14:41;99489.47;;;11.30;100.00
14253;BME280;7210;51.502;10.722;2023-02-18T11:17:31;99453.34;;;11.24;100.00
14253;BME280;7210;51.502;10.722;2023-02-18T11:20:01;99456.09;;;11.29;100.00
14253;BME280;7210;51.502;10.722;2023-02-18T11:22:34;99447.56;;;11.27;100.00
14253;BME280;7210;51.502;10.722;2023-02-18T11:25:18;99442.88;;;11.29;100.00
14253;BME280;7210;51.502;10.722;2023-02-18T11:27:49;99458.13;;;11.38;100.00
14253;BME280;7210;51.502;10.722;2023-02-18T11:30:22;99446.03;;;11.42;100.00
14253;BME280;7210;51.502;10.722;2023-02-18T11:32:57;99446.38;;;11.46;100.00
14253;BME280;7210;51.502;10.722;2023-02-18T11:35:32;99418.31;;;11.45;100.00
14253;BME280;7210;51.502;10.722;2023-02-18T11:38:03;99423.59;;;11.45;100.00
14253;BME280;7210;51.502;10.722;2023-02-18T11:40:42;99412.34;;;11.38;100.00
14253;BME280;7210;51.502;10.722;2023-02-18T11:43:19;99395.31;;;11.34;100.00
14253;BME280;7210;51.502;10.722;2023-02-18T11:45:47;99388.91;;;11.30;100.00
14253;BME280;7210;51.502;10.722;2023-02-18T11:48:33;99383.50;;;11.25;100.00
14253;BME280;7210;51.502;10.722;2023-02-18T11:51:01;99382.38;;;11.21;100.00
14253;BME280;7210;51.502;10.722;2023-02-18T11:53:32;99374.38;;;11.05;100.00
14253;BME280;7210;51.502;10.722;2023-02-18T11:56:03;99369.22;;;10.98;100.00
14253;BME280;7210;51.502;10.722;2023-02-18T11:58:40;99375.09;;;10.89;100.00
14253;BME280;7210;51.502;10.722;2023-02-18T12:01:17;99387.09;;;10.80;100.00
14253;BME280;7210;51.502;10.722;2023-02-18T12:03:57;99379.97;;;10.69;100.00
14253;BME280;7210;51.502;10.722;2023-02-18T12:06:31;99401.94;;;10.69;100.00
14253;BME280;7210;51.502;10.722;2023-02-18T12:09:10;99414.44;;;10.74;100.00
14253;BME280;7210;51.502;10.722;2023-02-18T12:11:47;99431.13;;;10.74;100.00
14253;BME280;7210;51.502;10.722;2023-02-18T12:14:18;99432.97;;;10.62;100.00
14253;BME280;7210;51.502;10.722;2023-02-18T12:17:25;99440.41;;;10.54;100.00
14253;BME280;7210;51.502;10.722;2023-02-18T12:20:31;99439.41;;;10.43;100.00
14253;BME280;7210;51.502;10.722;2023-02-18T12:23:12;99428.03;;;10.31;100.00
14253;BME280;7210;51.502;10.722;2023-02-18T12:25:51;99426.75;;;10.22;100.00
14253;BME280;7210;51.502;10.722;2023-02-18T12:28:40;99425.69;;;10.12;100.00
14253;BME280;7210;51.502;10.722;2023-02-18T12:31:38;99423.63;;;10.14;100.00
14253;BME280;7210;51.502;10.722;2023-02-18T12:34:32;99420.06;;;10.08;100.00
14253;BME280;7210;51.502;10.722;2023-02-18T12:37:19;99427.84;;;10.03;100.00
14253;BME280;7210;51.502;10.722;2023-02-18T12:40:19;99423.47;;;9.97;100.00
14253;BME280;7210;51.502;10.722;2023-02-18T12:42:58;99427.06;;;10.03;100.00
14253;BME280;7210;51.502;10.722;2023-02-18T12:46:00;99424.25;;;9.98;100.00
14253;BME280;7210;51.502;10.722;2023-02-18T12:49:14;99447.81;;;9.99;100.00
14253;BME280;7210;51.502;10.722;2023-02-18T12:52:14;99450.09;;;9.96;100.00
14253;BME280;7210;51.502;10.722;2023-02-18T12:55:16;99450.78;;;9.91;100.00
14253;BME280;7210;51.502;10.722;2023-02-18T12:57:58;99458.13;;;9.89;100.00
14253;BME280;7210;51.502;10.722;2023-02-18T13:00:52;99465.91;;;9.84;100.00
14253;BME280;7210;51.502;10.722;2023-02-18T13:04:03;99461.41;;;9.73;100.00
14253;BME280;7210;51.502;10.722;2023-02-18T13:07:20;99472.38;;;9.70;100.00
14253;BME280;7210;51.502;10.722;2023-02-18T13:10:11;99468.47;;;9.61;100.00
14253;BME280;7210;51.502;10.722;2023-02-18T13:12:53;99483.19;;;9.69;100.00
14253;BME280;7210;51.502;10.722;2023-02-18T13:15:34;99485.94;;;9.74;100.00
14253;BME280;7210;51.502;10.722;2023-02-18T13:18:10;99489.41;;;9.74;100.00
14253;BME280;7210;51.502;10.722;2023-02-18T13:20:44;99479.88;;;9.73;100.00
14253;BME280;7210;51.502;10.722;2023-02-18T13:23:20;99471.34;;;9.71;100.00
14253;BME280;7210;51.502;10.722;2023-02-18T13:25:54;99481.91;;;9.71;100.00
14253;BME280;7210;51.502;10.722;2023-02-18T13:28:28;99488.22;;;9.70;100.00
14253;BME280;7210;51.502;10.722;2023-02-18T13:31:30;99473.88;;;9.66;100.00
14253;BME280;7210;51.502;10.722;2023-02-18T13:34:09;99479.16;;;9.66;100.00
14253;BME280;7210;51.502;10.722;2023-02-18T13:36:59;99490.88;;;9.70;100.00
14253;BME280;7210;51.502;10.722;2023-02-18T13:39:31;99484.56;;;9.71;100.00